Time;durP1;ratioP1;P1;durP2;ratioP2;P2;SDS_P1;SDS_P2;PMS_P1;PMS_P2;Temp;Humidity;BMP_temperature;BMP_pressure;BME280_temperature;BME280_humidity;BME280_pressure;Samples;Min_cycle;Max_cycle;Signal;HPM_P1;HPM_P2
2022/08/15 00:02:13;;;;;;;9.40;2.70;;;;;;;22.67;68.24;99682.25;5103135;28;20059;-58
2022/08/15 00:05:05;;;;;;;4.97;3.20;;;;;;;22.94;69.01;99679.25;5105099;28;20048;-56
2022/08/15 00:07:36;;;;;;;4.80;2.90;;;;;;;23.01;67.00;99685.84;5104641;28;20062;-57
2022/08/15 00:10:19;;;;;;;6.77;3.07;;;;;;;23.15;68.77;99666.97;5107568;28;20083;-57
2022/08/15 00:13:14;;;;;;;15.40;4.73;;;;;;;23.38;68.17;99672.31;5109521;28;20044;-58
2022/08/15 00:15:48;;;;;;;7.83;3.70;;;;;;;23.48;67.18;99670.59;5108976;28;20046;-58
2022/08/15 00:18:21;;;;;;;7.43;2.80;;;;;;;23.52;65.83;99669.41;5109694;28;20073;-57
2022/08/15 00:20:53;;;;;;;5.07;2.90;;;;;;;23.64;67.41;99663.09;5109343;28;20286;-56
2022/08/15 00:23:28;;;;;;;25.87;2.77;;;;;;;23.76;67.29;99639.09;5109457;28;20055;-56
2022/08/15 00:26:01;;;;;;;17.40;3.47;;;;;;;23.98;66.59;99660.38;5108907;28;20052;-56
2022/08/15 00:28:52;;;;;;;6.07;2.60;;;;;;;24.08;64.68;99663.97;5108300;28;20036;-56
2022/08/15 00:31:31;;;;;;;12.60;2.27;;;;;;;24.10;62.79;99667.38;5108757;28;20039;-57
2022/08/15 00:34:20;;;;;;;3.13;2.03;;;;;;;23.91;63.18;99659.16;5087135;28;20048;-56
2022/08/15 00:37:09;;;;;;;4.03;1.93;;;;;;;24.01;62.96;99665.47;5086067;28;20116;-57
2022/08/15 00:39:40;;;;;;;2.63;2.17;;;;;;;23.94;62.73;99658.06;5086791;28;20371;-57
2022/08/15 00:42:15;;;;;;;28.20;3.07;;;;;;;24.07;62.73;99675.63;5086623;28;20153;-56
2022/08/15 00:44:54;;;;;;;2.63;1.63;;;;;;;23.97;61.05;99658.69;5085651;28;20216;-56
2022/08/15 00:51:21;;;;;;;2.83;2.00;;;;;;;24.43;61.53;99676.22;5086345;28;20332;-57
2022/08/15 00:54:09;;;;;;;7.70;2.00;;;;;;;24.38;61.92;99678.44;5108004;28;20131;-56
2022/08/15 00:57:03;;;;;;;4.53;1.73;;;;;;;24.53;62.19;99666.50;5106308;28;20044;-56
2022/08/15 00:59:44;;;;;;;2.90;1.53;;;;;;;24.33;58.28;99643.25;5107343;28;20069;-57
2022/08/15 01:02:36;;;;;;;3.53;1.83;;;;;;;24.55;62.08;99663.72;5090259;28;20040;-56
2022/08/15 01:05:13;;;;;;;2.37;1.90;;;;;;;24.73;62.01;99655.94;5087046;28;20309;-57
2022/08/15 01:07:47;;;;;;;4.47;1.80;;;;;;;24.88;60.20;99656.47;5086459;28;20246;-57
2022/08/15 01:10:52;;;;;;;6.00;2.00;;;;;;;25.06;61.46;99656.72;5088274;28;20052;-56
2022/08/15 01:13:37;;;;;;;4.73;1.80;;;;;;;25.05;59.95;99655.03;5070969;28;20047;-56
2022/08/15 01:17:01;;;;;;;2.30;1.40;;;;;;;25.18;61.69;99640.47;5087880;28;20114;-57
2022/08/15 01:19:40;;;;;;;2.80;1.83;;;;;;;25.28;61.68;99629.81;5080632;28;20048;-57
2022/08/15 01:22:45;;;;;;;3.87;1.70;;;;;;;25.21;58.94;99634.03;5087336;28;20542;-56
2022/08/15 01:25:21;;;;;;;3.43;1.47;;;;;;;25.14;59.71;99632.84;5074355;28;20057;-57
2022/08/15 01:32:04;;;;;;;8.07;2.30;;;;;;;25.39;60.46;99631.56;5082483;28;20059;-57
2022/08/15 01:35:15;;;;;;;5.23;2.03;;;;;;;25.50;60.65;99630.63;5080348;28;20054;-57
2022/08/15 01:45:14;;;;;;;6.13;2.10;;;;;;;25.16;60.80;99612.16;5024313;28;20192;-57
2022/08/15 01:47:54;;;;;;;25.13;3.60;;;;;;;25.46;61.99;99615.81;5021053;28;20144;-59
2022/08/15 01:50:58;;;;;;;31.17;2.70;;;;;;;25.76;60.82;99622.91;5024338;28;20117;-57
2022/08/15 01:53:49;;;;;;;4.17;2.07;;;;;;;25.79;58.60;99612.81;5023275;28;20216;-57
2022/08/15 01:56:33;;;;;;;5.17;1.70;;;;;;;25.86;58.82;99614.94;5025515;28;20088;-58
2022/08/15 01:59:11;;;;;;;6.30;1.80;;;;;;;26.05;60.35;99614.97;5025381;28;20109;-57
2022/08/15 02:01:47;;;;;;;9.23;1.90;;;;;;;26.16;58.84;99614.84;5025717;28;20318;-56
2022/08/15 02:04:31;;;;;;;5.93;2.07;;;;;;;26.03;56.95;99603.53;5024183;28;20054;-58
2022/08/15 02:07:12;;;;;;;3.33;1.70;;;;;;;26.06;58.11;99619.34;5024888;28;20089;-58
2022/08/15 02:09:54;;;;;;;4.40;1.93;;;;;;;25.93;57.30;99602.69;5025108;28;20123;-59
2022/08/15 02:12:51;;;;;;;7.97;1.67;;;;;;;26.01;60.21;99601.03;5025128;28;20323;-58
2022/08/15 02:18:49;;;;;;;3.53;1.60;;;;;;;26.17;56.42;99579.03;4966499;28;20035;-57
2022/08/15 02:21:34;;;;;;;3.33;2.13;;;;;;;26.15;56.09;99586.38;4966097;28;20588;-58
2022/08/15 02:27:21;;;;;;;4.60;2.40;;;;;;;26.38;57.68;99591.41;5144483;27;20341;-57
2022/08/15 02:29:54;;;;;;;6.30;2.00;;;;;;;26.28;55.52;99579.88;5123262;28;20044;-57
2022/08/15 02:35:36;;;;;;;4.67;1.83;;;;;;;26.53;56.65;99595.38;5119360;28;20051;-58
2022/08/15 02:38:11;;;;;;;;;;;;;;;26.81;56.84;99608.84;5123923;28;20435;-58
2022/08/15 02:40:52;;;;;;;3.38;1.70;;;;;;;27.01;56.93;99610.50;5123327;28;20046;-59
2022/08/15 02:43:43;;;;;;;24.10;3.23;;;;;;;27.20;56.69;99604.22;5123136;28;20115;-59
2022/08/15 02:58:16;;;;;;;18.07;2.33;;;;;;;27.49;54.59;99590.66;5120418;28;20040;-58
2022/08/15 03:01:10;;;;;;;45.93;3.87;;;;;;;27.50;55.56;99600.41;5122078;28;20319;-59
2022/08/15 03:03:50;;;;;;;12.23;2.10;;;;;;;27.60;53.76;99588.78;5122093;28;20411;-58
2022/08/15 03:06:34;;;;;;;8.33;1.90;;;;;;;27.52;51.95;99566.22;5122256;28;20504;-60
2022/08/15 03:09:14;;;;;;;5.80;1.80;;;;;;;27.71;52.62;99580.50;5122646;28;20090;-57
2022/08/15 03:14:47;;;;;;;13.50;2.27;;;;;;;27.70;52.78;99584.19;5134371;27;20424;-58
2022/08/15 03:17:21;;;;;;;55.47;6.83;;;;;;;27.72;52.88;99582.19;5112755;28;20069;-59
2022/08/15 03:19:56;;;;;;;37.80;4.37;;;;;;;27.90;53.33;99579.53;5112562;28;20055;-60
2022/08/15 03:22:44;;;;;;;6.30;1.93;;;;;;;28.30;52.96;99576.38;5112888;28;20131;-59
2022/08/15 03:25:17;;;;;;;;;;;;;;;28.45;52.49;99567.78;5113392;28;20060;-58
2022/08/15 03:28:11;;;;;;;45.50;4.03;;;;;;;28.54;51.32;99556.94;5111403;28;19943;-59
2022/08/15 03:34:17;;;;;;;4.90;2.00;;;;;;;27.98;53.20;99543.88;5112856;28;20072;-57
2022/08/15 03:36:58;;;;;;;6.23;2.50;;;;;;;27.69;51.31;99539.56;5112006;28;20051;-57
2022/08/15 03:39:47;;;;;;;4.03;2.00;;;;;;;27.24;50.90;99527.84;5110526;28;20106;-58
2022/08/15 03:42:25;;;;;;;10.90;1.67;;;;;;;26.67;51.10;99527.94;5112126;28;20127;-58
2022/08/15 03:45:16;;;;;;;13.70;2.80;;;;;;;26.60;54.77;99537.53;5110950;28;20284;-58
2022/08/15 03:47:54;;;;;;;8.60;2.63;;;;;;;26.32;54.56;99506.31;5110226;28;20056;-58
2022/08/15 03:50:42;;;;;;;6.38;2.47;;;;;;;26.03;56.39;99529.47;5111525;28;20056;-59
2022/08/15 03:56:39;;;;;;;8.57;2.73;;;;;;;25.27;60.71;99547.94;5095753;28;20050;-58
2022/08/15 03:59:25;;;;;;;6.53;2.27;;;;;;;25.03;61.44;99536.69;5111177;28;20060;-58
2022/08/15 04:09:40;;;;;;;42.70;4.70;;;;;;;25.05;63.12;99529.41;5027615;28;20095;-58
2022/08/15 04:12:42;;;;;;;18.63;3.10;;;;;;;24.86;64.96;99504.31;5027822;28;20058;-58
2022/08/15 04:19:26;;;;;;;7.40;3.40;;;;;;;24.75;72.63;99515.09;5018534;28;20124;-57
2022/08/15 04:26:12;;;;;;;9.07;3.60;;;;;;;24.45;77.98;99513.22;5009140;28;20064;-58
2022/08/15 04:29:03;;;;;;;7.23;3.47;;;;;;;24.36;77.84;99508.66;5015517;28;20354;-58
2022/08/15 04:31:56;;;;;;;5.57;2.83;;;;;;;24.29;77.99;99519.03;5004792;28;20061;-57
2022/08/15 04:35:11;;;;;;;6.23;3.33;;;;;;;24.15;78.60;99500.69;5015788;28;20064;-60
2022/08/15 04:38:06;;;;;;;6.27;3.20;;;;;;;24.26;78.11;99519.28;5016253;28;20084;-60
2022/08/15 04:40:43;;;;;;;5.00;3.00;;;;;;;24.39;78.39;99519.94;5015698;28;20347;-60
2022/08/15 04:47:04;;;;;;;;;;;;;;;;;;;;;
2022/08/15 04:53:21;;;;;;;6.40;2.63;;;;;;;24.89;74.86;99517.41;4958187;28;20038;-58
2022/08/15 04:59:39;;;;;;;5.73;2.03;;;;;;;25.01;72.20;99509.25;4992906;28;20299;-59
2022/08/15 05:03:00;;;;;;;3.30;2.30;;;;;;;25.02;71.91;99509.13;4996069;28;20073;-60
2022/08/15 05:06:01;;;;;;;5.77;2.50;;;;;;;24.86;71.44;99512.31;4995902;28;20084;-59
2022/08/15 05:11:59;;;;;;;8.33;3.03;;;;;;;24.87;71.81;99519.34;4944893;29;20098;-58
2022/08/15 05:14:55;;;;;;;6.80;3.10;;;;;;;24.97;71.89;99530.91;4943711;29;20114;-58
2022/08/15 05:17:39;;;;;;;5.50;2.87;;;;;;;25.06;71.00;99528.41;4944229;29;20081;-59
2022/08/15 05:20:44;;;;;;;4.47;2.47;;;;;;;25.08;71.59;99537.16;4946166;29;20054;-59
2022/08/15 05:23:32;;;;;;;7.47;2.47;;;;;;;24.92;70.68;99532.31;4946086;29;20055;-58
2022/08/15 05:26:27;;;;;;;5.70;2.50;;;;;;;24.73;71.10;99535.75;4963542;28;20215;-59
2022/08/15 05:32:21;;;;;;;7.47;2.40;;;;;;;24.51;72.30;99534.94;4988097;28;20062;-59
2022/08/15 05:34:54;;;;;;;35.07;5.93;;;;;;;24.48;71.59;99534.34;5004184;28;20096;-57
2022/08/15 05:40:30;;;;;;;6.07;2.47;;;;;;;25.12;72.08;99533.22;5002512;28;20271;-60
2022/08/15 05:43:15;;;;;;;4.40;2.30;;;;;;;25.63;70.06;99542.91;5004487;28;20109;-60
2022/08/15 05:46:18;;;;;;;4.47;2.93;;;;;;;25.89;69.33;99547.78;4956978;28;20286;-60
2022/08/15 05:52:29;;;;;;;7.90;2.40;;;;;;;25.16;67.07;99534.63;4998375;28;20056;-58
2022/08/15 05:58:30;;;;;;;3.27;2.10;;;;;;;25.21;67.86;99542.28;5067029;28;20202;-59
2022/08/15 06:04:11;;;;;;;7.40;2.10;;;;;;;24.89;67.24;99533.44;5061281;28;20052;-58
2022/08/15 06:07:09;;;;;;;6.77;2.30;;;;;;;24.74;67.75;99540.13;5075623;28;20048;-58
2022/08/15 06:12:37;;;;;;;5.50;2.03;;;;;;;24.31;68.37;99538.41;5073659;28;20052;-58
2022/08/15 06:15:30;;;;;;;7.03;2.07;;;;;;;24.25;68.95;99522.94;5094210;28;20067;-59
2022/08/15 06:18:09;;;;;;;2.53;1.73;;;;;;;24.13;68.96;99530.16;5096025;28;20059;-58
2022/08/15 06:20:51;;;;;;;10.30;2.03;;;;;;;24.02;69.33;99520.41;5095698;28;20110;-59
2022/08/15 06:23:32;;;;;;;4.77;1.70;;;;;;;24.34;69.82;99527.50;5096060;28;20097;-59
2022/08/15 06:26:19;;;;;;;8.03;1.90;;;;;;;24.56;68.10;99533.69;5095393;28;20075;-61
2022/08/15 06:29:17;;;;;;;5.57;2.00;;;;;;;24.81;67.70;99535.94;5096027;28;20044;-59
2022/08/15 06:35:09;;;;;;;7.33;1.90;;;;;;;24.59;66.00;99541.41;5067968;28;20591;-58
2022/08/15 06:37:51;;;;;;;4.03;1.90;;;;;;;24.31;67.54;99543.75;5095528;28;20051;-60
2022/08/15 06:40:44;;;;;;;;;;;;;;;24.17;68.36;99536.09;5094192;28;20050;-58
2022/08/15 06:43:21;;;;;;;3.27;1.70;;;;;;;23.96;68.33;99538.72;5092153;28;19996;-59
2022/08/15 06:45:55;;;;;;;3.10;1.80;;;;;;;23.73;68.88;99537.97;5094131;28;20146;-59
2022/08/15 06:48:31;;;;;;;2.60;1.73;;;;;;;23.53;68.83;99543.09;5092670;28;20048;-58
2022/08/15 06:51:24;;;;;;;3.63;1.90;;;;;;;23.43;69.56;99548.31;5093086;28;20193;-58
2022/08/15 06:54:19;;;;;;;9.77;2.27;;;;;;;23.36;70.08;99544.47;5093671;28;20354;-58
2022/08/15 06:57:13;;;;;;;4.30;2.13;;;;;;;23.33;70.62;99536.72;5095121;28;20048;-58
2022/08/15 07:00:01;;;;;;;4.93;1.97;;;;;;;23.30;71.30;99536.13;5093948;28;20056;-58
2022/08/15 07:05:48;;;;;;;3.27;1.93;;;;;;;23.17;71.60;99537.13;5086327;28;20610;-60
2022/08/15 07:08:31;;;;;;;5.10;2.53;;;;;;;23.13;71.71;99538.31;5092183;28;20132;-59
2022/08/15 07:11:11;;;;;;;5.23;2.03;;;;;;;23.10;71.44;99529.75;5091538;28;20044;-59
2022/08/15 07:14:10;;;;;;;5.70;1.97;;;;;;;22.98;71.44;99528.91;5081190;28;20551;-60
2022/08/15 07:17:00;;;;;;;;;;;;;;;22.92;72.04;99537.38;5091749;28;20101;-59
2022/08/15 07:19:35;;;;;;;5.47;2.00;;;;;;;22.89;72.13;99532.25;5091373;28;19920;-62
2022/08/15 07:22:09;;;;;;;3.80;1.93;;;;;;;22.94;72.42;99540.72;5089752;28;20050;-59
2022/08/15 07:24:51;;;;;;;4.30;2.00;;;;;;;22.97;72.06;99545.84;5086895;28;20202;-59
2022/08/15 07:27:31;;;;;;;7.53;1.93;;;;;;;22.96;71.51;99538.78;5092533;28;20111;-58
2022/08/15 07:30:13;;;;;;;9.23;2.00;;;;;;;23.05;70.87;99543.44;5094497;28;20051;-58
2022/08/15 07:32:50;;;;;;;4.40;1.83;;;;;;;23.06;71.97;99534.44;5094776;28;20040;-58
2022/08/15 07:35:26;;;;;;;3.03;1.93;;;;;;;23.05;72.17;99543.44;5094452;28;20123;-58
2022/08/15 07:38:02;;;;;;;11.60;2.28;;;;;;;22.94;72.25;99541.59;5094400;28;20056;-58
2022/08/15 07:40:56;;;;;;;2.73;1.90;;;;;;;22.87;72.32;99539.53;5094495;28;20265;-58
2022/08/15 07:43:32;;;;;;;4.20;1.90;;;;;;;22.77;72.68;99545.59;5093980;28;20055;-58
2022/08/15 07:46:10;;;;;;;3.00;1.83;;;;;;;22.43;73.37;99487.94;5094227;28;20074;-59
2022/08/15 07:49:00;;;;;;;12.60;3.47;;;;;;;22.76;73.50;99543.88;5094420;28;20052;-58
2022/08/15 07:51:42;;;;;;;16.50;2.63;;;;;;;22.82;73.56;99538.06;5094117;28;20097;-59
2022/08/15 07:54:33;;;;;;;37.97;4.00;;;;;;;23.02;73.53;99538.34;5094592;28;20267;-58
2022/08/15 07:57:27;;;;;;;11.23;2.47;;;;;;;23.12;73.15;99528.66;5094093;28;20056;-59
2022/08/15 08:00:25;;;;;;;18.33;2.70;;;;;;;23.41;72.98;99538.75;5094487;28;20063;-59
2022/08/15 08:03:23;;;;;;;9.77;1.85;;;;;;;23.66;71.84;99538.47;5097718;28;20048;-60
2022/08/15 08:06:07;;;;;;;6.60;2.10;;;;;;;23.85;72.20;99528.97;5097437;28;20264;-58
2022/08/15 08:09:08;;;;;;;3.60;1.80;;;;;;;23.98;70.99;99532.28;5095855;28;20106;-58
2022/08/15 08:11:48;;;;;;;7.07;2.17;;;;;;;24.06;71.13;99535.19;5098128;28;20126;-59
2022/08/15 08:14:36;;;;;;;21.00;2.70;;;;;;;24.19;70.77;99534.13;5095834;28;20245;-58
2022/08/15 08:17:16;;;;;;;9.13;2.13;;;;;;;23.96;70.33;99533.41;5097239;28;20055;-60
2022/08/15 08:20:05;;;;;;;9.17;2.10;;;;;;;23.63;70.62;99538.69;5097676;28;20052;-59
2022/08/15 08:22:48;;;;;;;6.40;1.80;;;;;;;23.16;71.07;99543.41;5097554;28;20121;-58
2022/08/15 08:25:28;;;;;;;12.50;2.07;;;;;;;22.89;71.81;99553.56;5097882;28;20043;-59
2022/08/15 08:28:28;;;;;;;3.53;1.60;;;;;;;22.60;73.39;99559.38;5097870;28;20059;-58
2022/08/15 08:31:13;;;;;;;3.20;1.77;;;;;;;22.43;73.96;99563.31;5097785;28;20479;-58
2022/08/15 08:34:05;;;;;;;8.27;2.00;;;;;;;22.25;74.70;99565.59;5097689;28;20365;-59
2022/08/15 08:36:50;;;;;;;34.80;2.83;;;;;;;22.08;75.03;99558.00;5095135;28;20047;-59
2022/08/15 08:39:32;;;;;;;33.53;3.50;;;;;;;21.98;75.88;99564.00;5097491;28;20051;-59
2022/08/15 08:42:18;;;;;;;6.40;2.03;;;;;;;21.86;76.76;99564.06;5097405;28;20077;-58
2022/08/15 08:45:04;;;;;;;6.17;2.10;;;;;;;21.72;77.40;99562.44;5097691;28;20052;-58
2022/08/15 08:48:03;;;;;;;32.65;3.35;;;;;;;21.70;78.07;99553.72;5097453;28;20050;-58
2022/08/15 08:50:48;;;;;;;13.60;2.70;;;;;;;21.65;78.50;99563.84;5092413;28;20075;-58
2022/08/15 08:53:29;;;;;;;7.73;2.93;;;;;;;21.62;78.78;99556.13;5097493;28;20048;-58
2022/08/15 08:56:06;;;;;;;4.60;2.30;;;;;;;21.63;79.11;99555.97;5097202;28;20117;-59
2022/08/15 08:59:03;;;;;;;11.13;2.17;;;;;;;21.60;78.81;99531.44;5097093;28;20052;-58
2022/08/15 09:01:35;;;;;;;21.47;3.33;;;;;;;21.77;78.47;99560.28;5096680;28;20066;-57
2022/08/15 09:04:13;;;;;;;51.47;4.50;;;;;;;21.88;78.40;99568.31;5097223;28;20082;-60
2022/08/15 09:06:53;;;;;;;10.47;2.80;;;;;;;21.84;77.98;99572.19;5094125;28;20063;-58
2022/08/15 09:09:34;;;;;;;10.63;2.30;;;;;;;21.71;78.30;99576.69;5097006;28;20074;-58
2022/08/15 09:15:03;;;;;;;22.63;3.07;;;;;;;21.43;79.70;99578.69;5094744;28;20292;-57
2022/08/15 09:18:01;;;;;;;13.20;2.97;;;;;;;21.34;80.24;99571.34;5097009;28;20204;-58
2022/08/15 09:20:48;;;;;;;10.23;2.73;;;;;;;21.24;80.85;99567.66;5013555;28;20061;-59
2022/08/15 09:23:31;;;;;;;6.30;2.40;;;;;;;21.14;81.90;99571.94;5007452;28;20348;-58
2022/08/15 09:26:23;;;;;;;6.20;2.37;;;;;;;21.09;82.53;99570.47;5010896;28;20304;-58
2022/08/15 09:29:21;;;;;;;11.23;3.00;;;;;;;20.96;83.06;99559.00;5012247;28;20912;-58
2022/08/15 09:32:12;;;;;;;7.53;3.00;;;;;;;20.84;83.46;99554.56;5014699;28;20093;-58
2022/08/15 09:38:17;;;;;;;;;;;;;;;20.64;84.06;99570.09;5009679;28;20053;-57
2022/08/15 09:41:36;;;;;;;7.43;2.77;;;;;;;20.51;84.68;99565.69;5014235;28;19917;-57
2022/08/15 09:44:42;;;;;;;8.68;3.10;;;;;;;20.41;85.20;99566.31;5014011;28;20438;-57
2022/08/15 09:47:53;;;;;;;5.77;2.40;;;;;;;20.31;85.55;99588.28;5014114;28;20402;-58
2022/08/15 09:51:00;;;;;;;8.17;2.80;;;;;;;20.22;85.65;99584.44;5014730;28;20289;-57
2022/08/15 09:54:01;;;;;;;14.03;3.10;;;;;;;20.17;85.92;99583.91;5011297;28;20749;-57
2022/08/15 09:57:43;;;;;;;5.53;2.87;;;;;;;20.09;86.36;99579.09;5011415;28;20302;-58
2022/08/15 10:00:30;;;;;;;16.43;3.53;;;;;;;19.96;86.44;99578.22;4973203;28;20360;-58
2022/08/15 10:03:22;;;;;;;18.08;3.10;;;;;;;19.83;86.89;99576.38;5013809;28;20636;-58
2022/08/15 10:06:09;;;;;;;6.33;3.47;;;;;;;19.83;87.12;99589.63;5011592;28;20058;-57
2022/08/15 10:09:32;;;;;;;13.27;2.90;;;;;;;19.78;87.47;99591.72;5007913;28;20292;-58
2022/08/15 10:12:46;;;;;;;8.37;2.90;;;;;;;19.74;88.00;99595.50;5012834;28;20395;-58
2022/08/15 10:15:41;;;;;;;8.67;2.77;;;;;;;19.68;88.28;99595.94;5012792;28;20351;-58
2022/08/15 10:18:51;;;;;;;8.15;3.55;;;;;;;19.71;88.71;99606.31;5013441;28;20517;-58
2022/08/15 10:25:26;;;;;;;19.40;3.23;;;;;;;19.59;89.26;99607.06;5010214;28;20364;-58
2022/08/15 10:28:40;;;;;;;16.83;2.90;;;;;;;19.51;89.52;99610.22;5010349;28;20641;-59
2022/08/15 10:31:34;;;;;;;13.70;2.67;;;;;;;19.50;89.96;99620.94;5013230;28;20304;-59
2022/08/15 10:35:09;;;;;;;9.63;2.92;;;;;;;19.48;90.12;99615.72;5011180;28;20295;-58
2022/08/15 10:38:35;;;;;;;24.90;10.10;;;;;;;19.48;90.31;99620.19;5009650;28;20360;-58
2022/08/15 10:41:39;;;;;;;54.97;17.37;;;;;;;19.42;90.63;99616.13;5012042;28;20292;-59
2022/08/15 10:44:21;;;;;;;29.93;14.90;;;;;;;19.26;90.74;99600.34;5013072;28;20346;-59
2022/08/15 10:47:16;;;;;;;27.40;12.70;;;;;;;19.38;91.09;99631.34;5012538;28;20320;-58
2022/08/15 10:50:04;;;;;;;17.60;8.37;;;;;;;19.36;91.11;99622.63;5010557;28;20351;-58
2022/08/15 10:52:47;;;;;;;;;;;;;;;19.35;91.16;99620.94;5012638;28;20312;-59
2022/08/15 10:55:28;;;;;;;11.23;5.13;;;;;;;19.06;90.99;99576.91;5011317;28;19925;-58
2022/08/15 10:58:30;;;;;;;11.15;5.25;;;;;;;19.24;91.19;99612.81;5010665;28;20281;-57
2022/08/15 11:01:24;;;;;;;9.17;5.23;;;;;;;19.20;91.23;99600.72;5010667;28;20346;-58
2022/08/15 11:04:05;;;;;;;10.63;5.07;;;;;;;19.13;91.09;99600.25;5083973;28;20362;-58
2022/08/15 11:07:04;;;;;;;9.97;4.63;;;;;;;19.04;91.19;99589.38;5092917;28;20337;-58
2022/08/15 11:09:38;;;;;;;9.23;4.50;;;;;;;19.04;91.52;99598.16;5093489;28;20309;-58
2022/08/15 11:12:20;;;;;;;9.80;4.40;;;;;;;18.90;91.80;99593.75;5094590;28;20539;-58
2022/08/15 11:15:06;;;;;;;11.17;4.57;;;;;;;18.92;91.83;99597.16;5091258;28;20296;-58
2022/08/15 11:18:04;;;;;;;11.83;5.03;;;;;;;18.89;92.02;99597.31;5092492;28;20302;-58
2022/08/15 11:21:06;;;;;;;16.93;6.43;;;;;;;18.85;91.58;99590.53;5092802;28;20329;-58
2022/08/15 11:23:55;;;;;;;6.53;3.60;;;;;;;18.70;91.46;99586.13;5094471;28;20290;-57
2022/08/15 11:26:37;;;;;;;6.43;3.00;;;;;;;18.47;92.14;99571.63;5087557;28;20122;-58
2022/08/15 11:29:55;;;;;;;6.47;3.10;;;;;;;18.43;92.84;99589.50;5087916;28;20535;-59
2022/08/15 11:33:40;;;;;;;9.43;3.23;;;;;;;18.23;93.27;99573.97;5085351;28;20296;-58
2022/08/15 11:39:41;;;;;;;11.00;3.13;;;;;;;18.32;93.89;99598.06;5096477;28;20294;-58
2022/08/15 11:42:42;;;;;;;13.97;3.27;;;;;;;18.36;93.72;99593.44;5094702;28;20305;-58
2022/08/15 11:45:35;;;;;;;21.53;4.90;;;;;;;18.37;93.85;99595.16;5034703;28;20288;-58
2022/08/15 11:51:52;;;;;;;11.37;4.30;;;;;;;18.40;94.34;99579.09;5034538;28;20500;-58
2022/08/15 11:55:18;;;;;;;11.97;7.50;;;;;;;18.46;94.35;99578.72;5034010;28;20359;-59
2022/08/15 11:58:45;;;;;;;15.23;7.77;;;;;;;18.20;94.35;99523.91;4956351;29;20318;-58
2022/08/15 12:02:21;;;;;;;12.90;7.10;;;;;;;18.54;94.32;99576.47;4956509;29;20275;-58
2022/08/15 12:09:40;;;;;;;48.10;6.77;;;;;;;18.45;94.54;99555.88;4956617;29;20641;-58
2022/08/15 12:16:53;;;;;;;8.73;3.87;;;;;;;18.63;95.04;99547.75;4952105;29;20291;-57
2022/08/15 12:19:49;;;;;;;6.27;3.47;;;;;;;18.54;95.22;99528.00;4956465;29;20367;-58
2022/08/15 12:22:49;;;;;;;11.13;3.38;;;;;;;18.68;95.08;99530.66;4983371;28;20296;-58
2022/08/15 12:25:43;;;;;;;10.77;3.63;;;;;;;18.81;94.43;99544.00;5014936;28;20192;-58
2022/08/15 12:31:41;;;;;;;12.93;3.47;;;;;;;18.73;94.20;99527.72;5014459;28;20585;-58
2022/08/15 12:34:20;;;;;;;7.33;3.57;;;;;;;18.77;94.06;99531.94;5014373;28;20336;-58
2022/08/15 12:37:01;;;;;;;8.20;3.10;;;;;;;18.72;94.29;99526.00;5015664;28;20490;-58
2022/08/15 12:39:42;;;;;;;17.98;4.15;;;;;;;18.77;94.07;99528.41;5015294;28;20486;-58
2022/08/15 12:42:20;;;;;;;8.25;2.78;;;;;;;18.70;94.04;99519.97;5015650;28;20065;-58
2022/08/15 12:45:15;;;;;;;5.83;3.60;;;;;;;18.69;93.71;99526.19;5014930;28;20050;-57
2022/08/15 12:47:47;;;;;;;10.60;3.63;;;;;;;18.56;94.21;99510.22;5049705;28;20601;-58
2022/08/15 12:50:37;;;;;;;6.27;3.17;;;;;;;18.71;94.40;99526.97;5080424;28;20626;-58
2022/08/15 12:53:12;;;;;;;6.13;3.30;;;;;;;18.70;94.44;99528.75;5080168;28;20370;-57
2022/08/15 12:55:50;;;;;;;6.53;3.60;;;;;;;18.69;94.98;99515.63;5080200;28;20354;-58
2022/08/15 12:58:25;;;;;;;11.30;3.97;;;;;;;18.63;95.38;99513.38;5079897;28;20049;-58
2022/08/15 13:01:00;;;;;;;8.83;3.40;;;;;;;18.75;95.62;99531.13;5061872;28;20603;-57
2022/08/15 13:03:33;;;;;;;7.40;3.10;;;;;;;18.71;95.39;99525.16;5016322;28;20316;-57
2022/08/15 13:06:31;;;;;;;14.23;3.67;;;;;;;18.63;95.84;99537.19;5028214;28;20319;-58
2022/08/15 13:09:06;;;;;;;7.80;4.50;;;;;;;18.53;95.79;99498.03;5019980;28;20320;-59
2022/08/15 13:11:44;;;;;;;10.03;4.83;;;;;;;18.65;95.72;99519.41;5019971;28;20289;-58
2022/08/15 13:14:21;;;;;;;8.87;4.20;;;;;;;18.58;95.46;99507.50;5019537;28;20301;-58
2022/08/15 13:16:54;;;;;;;8.80;4.53;;;;;;;18.58;95.21;99533.97;5019792;28;20708;-57
2022/08/15 13:25:31;;;;;;;6.87;3.83;;;;;;;18.37;94.69;99526.38;5019981;28;20293;-57
2022/08/15 13:28:07;;;;;;;8.60;3.90;;;;;;;18.20;94.60;99508.03;5037116;28;20346;-57
2022/08/15 13:30:40;;;;;;;7.50;4.07;;;;;;;18.26;94.73;99536.75;5039471;28;20308;-57
2022/08/15 13:33:37;;;;;;;7.57;3.97;;;;;;;18.19;94.60;99532.75;5039564;28;20280;-57
2022/08/15 13:36:15;;;;;;;5.93;3.40;;;;;;;18.11;93.81;99542.00;5039350;28;20284;-58
2022/08/15 13:39:02;;;;;;;8.30;3.40;;;;;;;17.90;93.25;99532.69;5038739;28;20874;-58
2022/08/15 13:41:44;;;;;;;7.07;2.53;;;;;;;17.71;93.42;99532.03;5025602;28;20296;-58
2022/08/15 13:44:31;;;;;;;4.73;2.97;;;;;;;17.66;93.89;99527.84;5022794;28;20303;-58
2022/08/15 13:47:06;;;;;;;6.80;2.80;;;;;;;17.62;94.10;99518.41;5019253;28;20443;-58
2022/08/15 13:49:47;;;;;;;4.53;3.07;;;;;;;17.54;94.02;99515.34;5019319;28;20475;-57
2022/08/15 13:52:23;;;;;;;8.57;3.40;;;;;;;17.58;94.29;99531.88;5019155;28;20312;-58
2022/08/15 13:55:14;;;;;;;6.60;3.00;;;;;;;17.41;94.84;99520.47;5019177;28;20288;-57
2022/08/15 13:57:45;;;;;;;10.87;3.20;;;;;;;17.42;95.29;99531.88;5018504;28;20853;-58
2022/08/15 14:00:38;;;;;;;12.03;3.43;;;;;;;17.35;94.84;99530.53;5019319;28;20559;-57
2022/08/15 14:03:34;;;;;;;7.27;3.70;;;;;;;17.22;94.79;99520.66;5033220;28;20372;-58
2022/08/15 14:06:08;;;;;;;8.53;2.60;;;;;;;17.09;95.01;99509.06;5038966;28;20288;-58
2022/08/15 14:08:43;;;;;;;12.30;3.20;;;;;;;16.84;95.04;99500.78;5038791;28;20280;-57
2022/08/15 14:11:35;;;;;;;8.30;2.87;;;;;;;16.95;95.25;99538.03;5038776;28;20350;-57
2022/08/15 14:14:27;;;;;;;9.20;2.80;;;;;;;16.80;94.78;99537.06;5038345;28;20299;-57
2022/08/15 14:17:09;;;;;;;10.30;3.03;;;;;;;16.70;95.04;99539.28;5039176;28;20304;-58
2022/08/15 14:19:41;;;;;;;6.83;2.70;;;;;;;16.55;95.54;99542.75;5038219;28;20629;-57
2022/08/15 14:22:32;;;;;;;5.83;2.77;;;;;;;16.49;95.93;99545.69;5039322;28;20356;-57
2022/08/15 14:25:18;;;;;;;4.40;2.40;;;;;;;16.47;95.87;99542.28;5038712;28;20659;-58
2022/08/15 14:28:09;;;;;;;4.90;2.47;;;;;;;16.35;96.22;99523.53;5038474;28;20268;-58
2022/08/15 14:30:49;;;;;;;7.03;2.73;;;;;;;16.47;96.73;99531.72;5038645;28;20287;-58
2022/08/15 14:33:31;;;;;;;5.40;2.37;;;;;;;16.32;96.16;99507.00;5038965;28;20303;-58
2022/08/15 14:36:22;;;;;;;3.57;2.50;;;;;;;16.30;96.42;99522.06;5038572;28;20299;-57
2022/08/15 14:39:14;;;;;;;10.03;2.77;;;;;;;16.25;96.66;99521.44;5038609;28;20304;-58
2022/08/15 14:41:48;;;;;;;5.30;2.40;;;;;;;16.32;96.79;99528.94;5038499;28;20287;-58
2022/08/15 14:44:22;;;;;;;8.30;2.80;;;;;;;16.11;97.16;99493.16;5038612;28;20477;-58
2022/08/15 14:47:13;;;;;;;5.50;2.53;;;;;;;16.34;96.92;99532.38;5038224;28;20276;-58
2022/08/15 14:49:50;;;;;;;10.10;2.93;;;;;;;16.28;96.98;99516.88;5038646;28;20281;-57
2022/08/15 14:52:42;;;;;;;5.77;2.70;;;;;;;16.37;96.75;99526.06;5038342;28;20292;-57
2022/08/15 14:55:13;;;;;;;10.87;2.70;;;;;;;16.17;96.82;99485.81;5038282;28;20303;-58
2022/08/15 14:57:48;;;;;;;5.80;2.60;;;;;;;16.28;96.85;99490.50;5038162;28;20288;-58
2022/08/15 15:00:32;;;;;;;5.67;2.83;;;;;;;16.44;96.65;99510.81;5038447;28;20604;-57
2022/08/15 15:03:06;;;;;;;5.63;2.73;;;;;;;16.36;96.56;99498.03;5038500;28;20458;-58
2022/08/15 15:05:42;;;;;;;4.10;2.50;;;;;;;16.60;96.33;99527.53;5038303;28;20707;-57
2022/08/15 15:08:33;;;;;;;11.70;2.50;;;;;;;16.48;96.04;99501.81;5038289;28;20287;-58
2022/08/15 15:11:04;;;;;;;4.10;2.67;;;;;;;16.43;95.96;99499.41;5038393;28;20280;-59
2022/08/15 15:13:35;;;;;;;4.67;2.80;;;;;;;16.48;95.80;99512.34;5032219;28;20356;-58
2022/08/15 15:16:10;;;;;;;6.57;2.60;;;;;;;16.31;96.61;99494.78;5019751;28;20309;-57
2022/08/15 15:19:01;;;;;;;3.80;2.47;;;;;;;16.43;96.50;99524.94;5018127;28;20354;-58
2022/08/15 15:21:40;;;;;;;4.33;2.63;;;;;;;16.31;96.71;99495.63;5018313;28;20297;-58
2022/08/15 15:24:12;;;;;;;3.43;2.83;;;;;;;16.16;96.60;99491.16;5018238;28;20299;-58